createdAt,value
2023-12-11T00:01:51.454Z,101614.14
2023-12-11T00:04:04.422Z,101611.59
2023-12-11T00:06:18.376Z,101613.16
2023-12-11T00:08:31.308Z,101615.23
2023-12-11T00:10:44.419Z,101614.73
2023-12-11T00:12:57.068Z,101615.73
2023-12-11T00:15:12.437Z,101613.00
2023-12-11T00:17:25.194Z,101620.37
2023-12-11T00:19:37.883Z,101619.42
2023-12-11T00:21:50.461Z,101621.27
2023-12-11T00:24:03.513Z,101621.23
2023-12-11T00:26:16.238Z,101620.88
2023-12-11T00:28:29.247Z,101624.13
2023-12-11T00:30:42.247Z,101623.98
2023-12-11T00:32:56.577Z,101618.09
2023-12-11T00:35:09.646Z,101622.50
2023-12-11T00:37:22.923Z,101622.13
2023-12-11T00:39:35.948Z,101623.29
2023-12-11T00:41:49.963Z,101624.12
2023-12-11T00:44:02.797Z,101619.81
2023-12-11T00:46:17.921Z,101620.72
2023-12-11T00:48:30.580Z,101620.48
2023-12-11T00:50:43.457Z,101623.47
2023-12-11T00:52:56.197Z,101619.32
2023-12-11T00:55:09.790Z,101623.58
2023-12-11T00:57:22.705Z,101623.27
2023-12-11T00:59:35.413Z,101623.70
2023-12-11T01:01:48.752Z,101626.63
2023-12-11T01:04:01.802Z,101626.90
2023-12-11T01:06:15.056Z,101627.43
2023-12-11T01:08:29.960Z,101631.61
2023-12-11T01:10:42.765Z,101633.83
2023-12-11T01:12:55.319Z,101633.64
2023-12-11T01:15:08.411Z,101635.56
2023-12-11T01:17:37.759Z,101627.56
2023-12-11T01:19:50.714Z,101628.58
2023-12-11T01:22:03.466Z,101631.04
2023-12-11T01:24:17.045Z,101627.89
2023-12-11T01:26:30.922Z,101631.44
2023-12-11T01:28:43.941Z,101626.66
2023-12-11T01:30:56.662Z,101629.05
2023-12-11T01:33:09.429Z,101628.83
2023-12-11T01:35:22.231Z,101627.95
2023-12-11T01:37:35.189Z,101625.27
2023-12-11T01:39:48.004Z,101625.07
2023-12-11T01:42:01.740Z,101622.04
2023-12-11T01:44:14.933Z,101620.95
2023-12-11T01:46:28.911Z,101623.95
2023-12-11T01:48:42.460Z,101621.41
2023-12-11T01:50:55.920Z,101623.73
2023-12-11T01:53:09.076Z,101625.08
2023-12-11T01:55:21.785Z,101627.77
2023-12-11T01:57:35.869Z,101627.45
2023-12-11T01:59:49.624Z,101628.00
2023-12-11T02:02:03.766Z,101629.70
2023-12-11T02:04:18.233Z,101627.98
2023-12-11T02:06:31.158Z,101626.66
2023-12-11T02:08:44.005Z,101624.75
2023-12-11T02:10:57.004Z,101628.16
2023-12-11T02:13:10.056Z,101629.09
2023-12-11T02:15:42.990Z,101631.36
2023-12-11T02:17:55.790Z,101631.65
2023-12-11T02:20:08.971Z,101628.10
2023-12-11T02:22:22.065Z,101632.84
2023-12-11T02:24:37.661Z,101633.85
2023-12-11T02:26:51.617Z,101635.86
2023-12-11T02:29:04.606Z,101635.05
2023-12-11T02:31:17.923Z,101633.23
2023-12-11T02:33:31.106Z,101634.64
2023-12-11T02:35:48.017Z,101638.63
2023-12-11T02:38:00.963Z,101643.91
2023-12-11T02:40:15.338Z,101641.67
2023-12-11T02:42:28.098Z,101644.31
2023-12-11T02:44:41.284Z,101643.48
2023-12-11T02:46:53.863Z,101642.59
2023-12-11T02:49:06.594Z,101639.31
2023-12-11T02:51:19.465Z,101640.70
2023-12-11T02:53:32.402Z,101641.29
2023-12-11T02:55:45.538Z,101642.20
2023-12-11T02:58:00.716Z,101643.35
2023-12-11T03:00:12.045Z,101639.95
2023-12-11T03:02:22.310Z,101644.85
2023-12-11T03:04:33.355Z,101643.23
2023-12-11T03:06:43.794Z,101643.34
2023-12-11T03:08:54.163Z,101639.11
2023-12-11T03:11:04.448Z,101639.17
2023-12-11T03:13:14.932Z,101637.32
2023-12-11T03:15:25.325Z,101635.40
2023-12-11T03:17:35.452Z,101634.65
2023-12-11T03:19:45.360Z,101637.68
2023-12-11T03:21:57.940Z,101635.45
2023-12-11T03:24:08.321Z,101631.52
2023-12-11T03:26:18.558Z,101633.55
2023-12-11T03:28:30.536Z,101635.19
2023-12-11T03:30:41.119Z,101633.70
2023-12-11T03:32:51.927Z,101631.17
2023-12-11T03:35:02.793Z,101628.63
2023-12-11T03:37:14.355Z,101628.54
2023-12-11T03:39:24.313Z,101627.60
2023-12-11T03:41:34.609Z,101629.24
2023-12-11T03:43:44.928Z,101632.91
2023-12-11T03:45:57.874Z,101630.96
2023-12-11T03:48:08.308Z,101631.52
2023-12-11T03:50:18.867Z,101631.53
2023-12-11T03:52:28.975Z,101630.99
2023-12-11T03:54:39.616Z,101628.61
2023-12-11T03:56:49.580Z,101631.83
2023-12-11T03:58:59.403Z,101631.92
2023-12-11T04:01:12.617Z,101628.69
2023-12-11T04:03:22.981Z,101627.66
2023-12-11T04:05:33.511Z,101631.02
2023-12-11T04:07:43.546Z,101629.70
2023-12-11T04:09:53.552Z,101628.31
2023-12-11T04:12:03.666Z,101622.09
2023-12-11T04:14:13.901Z,101620.65
2023-12-11T04:16:23.978Z,101615.13
2023-12-11T04:18:34.028Z,101614.80
2023-12-11T04:20:44.371Z,101615.63
2023-12-11T04:22:54.759Z,101612.95
2023-12-11T04:25:05.044Z,101608.39
2023-12-11T04:27:15.066Z,101608.05
2023-12-11T04:29:25.251Z,101610.04
2023-12-11T04:31:35.698Z,101611.64
2023-12-11T04:33:45.761Z,101614.26
2023-12-11T04:35:56.591Z,101613.96
2023-12-11T04:38:06.706Z,101615.13
2023-12-11T04:40:18.174Z,101613.41
2023-12-11T04:42:28.272Z,101611.76
2023-12-11T04:44:38.846Z,101607.16
2023-12-11T04:46:49.121Z,101608.52
2023-12-11T04:49:00.346Z,101604.90
2023-12-11T04:51:10.921Z,101604.92
2023-12-11T04:53:21.178Z,101604.41
2023-12-11T04:55:31.505Z,101601.52
2023-12-11T04:57:41.699Z,101599.89
2023-12-11T04:59:51.977Z,101598.90
2023-12-11T05:02:02.159Z,101594.90
2023-12-11T05:04:12.260Z,101600.23
2023-12-11T05:06:22.594Z,101599.70
2023-12-11T05:08:32.638Z,101599.06
2023-12-11T05:10:42.601Z,101595.13
2023-12-11T05:12:52.527Z,101600.26
2023-12-11T05:15:03.876Z,101603.23
2023-12-11T05:17:14.094Z,101608.25
2023-12-11T05:19:24.537Z,101607.96
2023-12-11T05:21:35.034Z,101609.86
2023-12-11T05:23:45.192Z,101610.96
2023-12-11T05:25:56.025Z,101613.29
2023-12-11T05:28:06.009Z,101616.68
2023-12-11T05:30:16.289Z,101620.60
2023-12-11T05:32:26.836Z,101621.22
2023-12-11T05:34:36.874Z,101621.63
2023-12-11T05:36:46.849Z,101621.80
2023-12-11T05:38:57.041Z,101621.86
2023-12-11T05:41:07.925Z,101626.60
2023-12-11T05:43:18.114Z,101631.47
2023-12-11T05:45:28.351Z,101633.85
2023-12-11T05:47:38.651Z,101635.17
2023-12-11T05:49:48.731Z,101635.04
2023-12-11T05:51:58.745Z,101633.82
2023-12-11T05:54:09.712Z,101639.34
2023-12-11T05:56:19.758Z,101640.08
2023-12-11T05:58:29.726Z,101637.78
2023-12-11T06:00:39.816Z,101634.73
2023-12-11T06:02:50.150Z,101642.03
2023-12-11T06:05:00.999Z,101640.88
2023-12-11T06:07:11.046Z,101640.14
2023-12-11T06:09:20.992Z,101635.72
2023-12-11T06:11:31.087Z,101635.13
2023-12-11T06:13:41.387Z,101639.02
2023-12-11T06:15:51.635Z,101639.46
2023-12-11T06:18:01.731Z,101637.63
2023-12-11T06:20:12.528Z,101635.38
2023-12-11T06:22:23.084Z,101632.79
2023-12-11T06:24:33.218Z,101634.45
2023-12-11T06:26:44.567Z,101636.77
2023-12-11T06:28:54.804Z,101639.67
2023-12-11T06:31:04.811Z,101636.73
2023-12-11T06:33:14.988Z,101636.90
2023-12-11T06:35:25.328Z,101631.59
2023-12-11T06:37:36.051Z,101630.12
2023-12-11T06:39:46.312Z,101630.30
2023-12-11T06:41:57.661Z,101628.85
2023-12-11T06:44:09.196Z,101629.10
2023-12-11T06:46:19.324Z,101624.90
2023-12-11T06:48:29.523Z,101624.44
2023-12-11T06:50:39.594Z,101622.58
2023-12-11T06:52:49.862Z,101619.84
2023-12-11T06:54:59.786Z,101621.86
2023-12-11T06:57:09.852Z,101625.41
2023-12-11T06:59:20.117Z,101625.19
2023-12-11T07:01:32.918Z,101626.15
2023-12-11T07:03:47.282Z,101626.40
2023-12-11T07:05:57.454Z,101622.34
2023-12-11T07:08:07.540Z,101622.77
2023-12-11T07:10:17.612Z,101621.17
2023-12-11T07:12:27.629Z,101619.92
2023-12-11T07:14:37.640Z,101623.73
2023-12-11T07:16:47.556Z,101632.62
2023-12-11T07:18:57.607Z,101633.40
2023-12-11T07:21:10.837Z,101635.36
2023-12-11T07:23:20.727Z,101635.91
2023-12-11T07:25:31.141Z,101636.59
2023-12-11T07:27:41.545Z,101633.86
2023-12-11T07:29:51.746Z,101635.33
2023-12-11T07:32:01.677Z,101632.73
2023-12-11T07:34:12.062Z,101639.04
2023-12-11T07:36:22.196Z,101638.73
2023-12-11T07:38:32.621Z,101636.48
2023-12-11T07:40:42.699Z,101638.52
2023-12-11T07:42:52.727Z,101637.63
2023-12-11T07:45:02.659Z,101635.38
2023-12-11T07:47:12.592Z,101639.83
2023-12-11T07:49:22.729Z,101634.48
2023-12-11T07:51:32.689Z,101634.64
2023-12-11T07:53:42.653Z,101632.61
2023-12-11T07:55:53.205Z,101627.86
2023-12-11T07:58:03.136Z,101618.45
2023-12-11T08:00:15.359Z,101616.05
2023-12-11T08:02:25.508Z,101617.63
2023-12-11T08:04:35.922Z,101616.45
2023-12-11T08:06:46.362Z,101615.42
2023-12-11T08:08:57.623Z,101617.23
2023-12-11T08:11:08.047Z,101617.98
2023-12-11T08:13:18.040Z,101619.32
2023-12-11T08:15:29.174Z,101619.30
2023-12-11T08:17:39.366Z,101619.75
2023-12-11T08:19:49.406Z,101621.24
2023-12-11T08:21:59.899Z,101617.25
2023-12-11T08:24:10.699Z,101617.66
2023-12-11T08:26:22.231Z,101620.57
2023-12-11T08:28:32.523Z,101619.39
2023-12-11T08:30:42.603Z,101621.52
2023-12-11T08:32:52.849Z,101615.78
2023-12-11T08:35:05.965Z,101612.52
2023-12-11T08:37:16.370Z,101615.73
2023-12-11T08:39:26.250Z,101615.88
2023-12-11T08:41:36.202Z,101613.79
2023-12-11T08:43:46.028Z,101615.32
2023-12-11T08:45:55.975Z,101616.24
2023-12-11T08:48:06.046Z,101616.95
2023-12-11T08:50:16.984Z,101616.39
2023-12-11T08:52:27.166Z,101612.55
2023-12-11T08:54:37.092Z,101613.35
2023-12-11T08:56:47.125Z,101613.02
2023-12-11T08:58:58.204Z,101611.30
2023-12-11T09:01:08.352Z,101617.31
2023-12-11T09:03:18.502Z,101617.21
2023-12-11T09:05:29.480Z,101619.64
2023-12-11T09:07:39.461Z,101616.63
2023-12-11T09:09:50.185Z,101616.39
2023-12-11T09:12:00.531Z,101620.23
2023-12-11T09:14:10.821Z,101617.41
2023-12-11T09:16:20.926Z,101616.51
2023-12-11T09:18:30.926Z,101616.83
2023-12-11T09:20:41.245Z,101621.15
2023-12-11T09:22:51.200Z,101625.03
2023-12-11T09:25:01.263Z,101623.55
2023-12-11T09:27:11.453Z,101625.39
2023-12-11T09:29:21.474Z,101624.35
2023-12-11T09:31:31.513Z,101620.75
2023-12-11T09:33:42.608Z,101617.61
2023-12-11T09:35:53.591Z,101620.21
2023-12-11T09:38:03.508Z,101626.06
2023-12-11T09:40:14.903Z,101628.64
2023-12-11T09:42:25.162Z,101628.38
2023-12-11T09:44:35.660Z,101621.23
2023-12-11T09:46:51.889Z,101621.92
2023-12-11T09:49:02.002Z,101619.91
2023-12-11T09:51:12.185Z,101625.11
2023-12-11T09:53:22.944Z,101627.02
2023-12-11T09:55:32.875Z,101629.69
2023-12-11T09:57:44.423Z,101632.67
2023-12-11T09:59:54.923Z,101638.14
2023-12-11T10:02:05.921Z,101642.91
2023-12-11T10:04:16.655Z,101639.80
2023-12-11T10:06:27.929Z,101643.67
2023-12-11T10:08:43.489Z,101646.59
2023-12-11T10:10:53.658Z,101647.85
2023-12-11T10:13:04.298Z,101649.14
2023-12-11T10:15:14.744Z,101652.98
2023-12-11T10:17:24.759Z,101656.56
2023-12-11T10:19:37.836Z,101661.90
2023-12-11T10:21:47.826Z,101663.33
2023-12-11T10:24:07.782Z,101662.67
2023-12-11T10:26:17.780Z,101664.54
2023-12-11T10:28:30.785Z,101662.65
2023-12-11T10:30:52.624Z,101668.34
2023-12-11T10:33:06.079Z,101671.49
2023-12-11T10:35:26.692Z,101673.66
2023-12-11T10:37:38.443Z,101676.90
2023-12-11T10:39:57.538Z,101679.84
2023-12-11T10:42:15.922Z,101677.91
2023-12-11T10:46:45.718Z,101670.58
2023-12-11T10:48:57.051Z,101668.67
2023-12-11T10:51:07.159Z,101669.92
2023-12-11T10:53:17.366Z,101664.09
2023-12-11T10:55:27.470Z,101662.56
2023-12-11T10:57:37.835Z,101659.38
2023-12-11T10:59:48.209Z,101661.05
2023-12-11T11:01:59.514Z,101658.60
2023-12-11T11:04:09.673Z,101659.11
2023-12-11T11:06:19.667Z,101660.30
2023-12-11T11:08:34.710Z,101659.02
2023-12-11T11:10:48.124Z,101662.27
2023-12-11T11:13:00.571Z,101663.59
2023-12-11T11:15:12.306Z,101662.77
2023-12-11T11:17:22.057Z,101655.94
2023-12-11T11:19:31.981Z,101665.30
2023-12-11T11:21:42.023Z,101665.94
2023-12-11T11:23:51.949Z,101664.46
2023-12-11T11:26:02.283Z,101660.15
2023-12-11T11:28:32.445Z,101661.24
2023-12-11T11:30:55.128Z,101654.23
2023-12-11T11:33:07.156Z,101656.16
2023-12-11T11:35:37.322Z,101655.37
2023-12-11T11:37:54.086Z,101655.55
2023-12-11T11:40:05.197Z,101649.15
2023-12-11T11:42:15.372Z,101648.21
2023-12-11T11:44:25.581Z,101649.31
2023-12-11T11:46:58.234Z,101650.92
2023-12-11T11:49:39.910Z,101653.27
2023-12-11T11:52:23.731Z,101652.66
2023-12-11T11:54:49.329Z,101654.81
2023-12-11T11:56:59.379Z,101652.02
2023-12-11T11:59:09.235Z,101653.59
2023-12-11T12:01:19.377Z,101651.23
2023-12-11T12:03:29.278Z,101645.50
2023-12-11T12:05:39.582Z,101647.33
2023-12-11T12:07:49.565Z,101646.40
2023-12-11T12:10:01.679Z,101646.27
2023-12-11T12:12:18.460Z,101648.24
2023-12-11T12:14:29.493Z,101650.43
2023-12-11T12:16:40.012Z,101650.95
2023-12-11T12:18:56.879Z,101647.33
2023-12-11T12:21:07.672Z,101652.34
2023-12-11T12:23:17.513Z,101653.49
2023-12-11T12:25:28.657Z,101652.73
2023-12-11T12:27:39.575Z,101657.29
2023-12-11T12:29:49.677Z,101659.58
2023-12-11T12:32:00.230Z,101661.98
2023-12-11T12:34:10.875Z,101660.94
2023-12-11T12:36:20.827Z,101660.29
2023-12-11T12:38:30.790Z,101655.50
2023-12-11T12:40:40.949Z,101654.30
2023-12-11T12:42:51.154Z,101651.48
2023-12-11T12:45:01.178Z,101649.45
2023-12-11T12:47:12.667Z,101650.61
2023-12-11T12:49:24.906Z,101644.08
2023-12-11T12:51:34.696Z,101641.14
2023-12-11T12:53:54.065Z,101651.36
2023-12-11T12:56:04.458Z,101656.95
2023-12-11T12:58:16.902Z,101656.79
2023-12-11T13:00:28.541Z,101656.09
2023-12-11T13:02:38.389Z,101655.38
2023-12-11T13:04:54.867Z,101656.40
2023-12-11T13:07:15.944Z,101647.23
2023-12-11T13:09:35.828Z,101652.22
2023-12-11T13:11:51.212Z,101650.98
2023-12-11T13:14:01.985Z,101651.16
2023-12-11T13:16:12.848Z,101653.22
2023-12-11T13:18:22.699Z,101656.34
2023-12-11T13:20:32.785Z,101660.81
2023-12-11T13:22:42.592Z,101653.80
2023-12-11T13:24:54.168Z,101653.38
2023-12-11T13:27:04.709Z,101658.23
2023-12-11T13:29:14.554Z,101659.33
2023-12-11T13:31:24.802Z,101659.71
2023-12-11T13:33:36.484Z,101658.50
2023-12-11T13:35:46.420Z,101661.61
2023-12-11T13:37:56.509Z,101663.71
2023-12-11T13:40:07.365Z,101664.35
2023-12-11T13:42:17.583Z,101664.58
2023-12-11T13:44:27.817Z,101665.41
2023-12-11T13:46:37.648Z,101672.75
2023-12-11T13:48:48.673Z,101673.33
2023-12-11T13:50:58.818Z,101677.06
2023-12-11T13:53:08.800Z,101674.86
2023-12-11T13:55:18.801Z,101678.75
2023-12-11T13:57:28.940Z,101682.14
2023-12-11T13:59:38.974Z,101680.98
2023-12-11T14:01:49.596Z,101678.83
2023-12-11T14:03:59.822Z,101681.11
2023-12-11T14:06:10.092Z,101679.83
2023-12-11T14:08:20.124Z,101681.60
2023-12-11T14:10:30.756Z,101680.56
2023-12-11T14:12:41.065Z,101684.13
2023-12-11T14:14:51.318Z,101689.60
2023-12-11T14:17:01.247Z,101685.80
2023-12-11T14:19:11.233Z,101691.23
2023-12-11T14:21:21.506Z,101688.27
2023-12-11T14:23:31.639Z,101693.71
2023-12-11T14:25:41.564Z,101694.98
2023-12-11T14:27:51.520Z,101694.60
2023-12-11T14:30:01.598Z,101693.67
2023-12-11T14:32:12.543Z,101691.16
2023-12-11T14:34:22.416Z,101691.52
2023-12-11T14:36:32.314Z,101692.39
2023-12-11T14:38:42.570Z,101689.77
2023-12-11T14:40:52.409Z,101694.34
2023-12-11T14:43:04.506Z,101692.56
2023-12-11T14:45:15.257Z,101696.16
2023-12-11T14:47:27.064Z,101692.30
2023-12-11T14:49:37.151Z,101691.82
2023-12-11T14:51:47.032Z,101691.12
2023-12-11T14:53:56.850Z,101696.26
2023-12-11T14:56:07.195Z,101694.42
2023-12-11T14:58:17.456Z,101699.41
2023-12-11T15:00:27.576Z,101699.38
2023-12-11T15:02:37.658Z,101696.65
2023-12-11T15:04:48.122Z,101698.73
2023-12-11T15:06:58.659Z,101699.02
2023-12-11T15:09:09.297Z,101699.98
2023-12-11T15:11:21.505Z,101696.31
2023-12-11T15:13:32.841Z,101693.09
2023-12-11T15:15:43.557Z,101693.25
2023-12-11T15:17:54.034Z,101693.35
2023-12-11T15:20:08.429Z,101693.52
2023-12-11T15:22:18.587Z,101691.92
2023-12-11T15:24:28.478Z,101687.46
2023-12-11T15:26:38.775Z,101693.89
2023-12-11T15:28:48.819Z,101694.39
2023-12-11T15:31:12.787Z,101694.25
2023-12-11T15:33:24.431Z,101697.15
2023-12-11T15:35:34.765Z,101696.05
2023-12-11T15:37:44.935Z,101698.91
2023-12-11T15:39:54.764Z,101696.69
2023-12-11T15:42:05.015Z,101698.77
2023-12-11T15:44:14.972Z,101699.73
2023-12-11T15:46:25.515Z,101703.80
2023-12-11T15:48:35.517Z,101706.39
2023-12-11T15:50:45.709Z,101707.82
2023-12-11T15:52:55.733Z,101704.06
2023-12-11T15:55:06.229Z,101701.75
2023-12-11T15:57:16.461Z,101707.09
2023-12-11T15:59:26.508Z,101708.23
2023-12-11T16:01:36.744Z,101709.52
2023-12-11T16:03:47.256Z,101711.14
2023-12-11T16:05:57.915Z,101712.52
2023-12-11T16:08:08.824Z,101713.48
2023-12-11T16:10:19.182Z,101710.13
2023-12-11T16:12:29.606Z,101703.59
2023-12-11T16:14:41.903Z,101705.52
2023-12-11T16:16:52.938Z,101707.63
2023-12-11T16:19:03.806Z,101714.16
2023-12-11T16:21:14.562Z,101715.20
2023-12-11T16:23:24.841Z,101725.83
2023-12-11T16:25:36.223Z,101727.02
2023-12-11T16:27:47.318Z,101727.84
2023-12-11T16:29:57.253Z,101728.36
2023-12-11T16:32:07.141Z,101732.58
2023-12-11T16:34:17.226Z,101731.51
2023-12-11T16:36:27.649Z,101735.66
2023-12-11T16:38:37.669Z,101731.97
2023-12-11T16:40:47.725Z,101730.33
2023-12-11T16:42:57.691Z,101726.20
2023-12-11T16:45:08.130Z,101730.41
2023-12-11T16:47:18.223Z,101727.95
2023-12-11T16:49:28.130Z,101728.08
2023-12-11T16:51:39.700Z,101727.20
2023-12-11T16:53:49.843Z,101734.52
2023-12-11T16:56:00.344Z,101735.36
2023-12-11T16:58:10.414Z,101739.25
2023-12-11T17:00:21.714Z,101741.57
2023-12-11T17:02:31.963Z,101743.75
2023-12-11T17:04:42.125Z,101747.32
2023-12-11T17:06:51.990Z,101750.73
2023-12-11T17:09:02.325Z,101751.54
2023-12-11T17:11:12.472Z,101755.94
2023-12-11T17:13:22.780Z,101765.06
2023-12-11T17:15:32.915Z,101761.71
2023-12-11T17:17:43.412Z,101764.13
2023-12-11T17:19:53.601Z,101764.02
2023-12-11T17:22:04.461Z,101765.52
2023-12-11T17:24:15.062Z,101765.88
2023-12-11T17:26:25.413Z,101767.10
2023-12-11T17:28:35.471Z,101765.83
2023-12-11T17:30:45.394Z,101769.33
2023-12-11T17:32:55.338Z,101768.30
2023-12-11T17:35:07.162Z,101773.27
2023-12-11T17:37:17.416Z,101773.17
2023-12-11T17:39:27.435Z,101777.61
2023-12-11T17:41:37.445Z,101779.03
2023-12-11T17:43:47.090Z,101777.14
2023-12-11T17:45:56.967Z,101778.90
2023-12-11T17:48:07.733Z,101785.33
2023-12-11T17:50:17.593Z,101784.81
2023-12-11T17:52:27.775Z,101788.42
2023-12-11T17:54:37.534Z,101790.16
2023-12-11T17:56:47.287Z,101788.36
2023-12-11T17:58:57.954Z,101791.00
2023-12-11T18:01:08.247Z,101791.94
2023-12-11T18:03:18.217Z,101797.55
2023-12-11T18:05:27.967Z,101801.98
2023-12-11T18:07:37.817Z,101801.60
2023-12-11T18:09:48.152Z,101801.16
2023-12-11T18:11:57.976Z,101795.85
2023-12-11T18:14:08.246Z,101793.21
2023-12-11T18:16:18.466Z,101796.86
2023-12-11T18:18:28.717Z,101793.42
2023-12-11T18:20:38.620Z,101794.30
2023-12-11T18:22:48.361Z,101797.84
2023-12-11T18:24:58.091Z,101800.50
2023-12-11T18:27:08.415Z,101802.36
2023-12-11T18:29:19.853Z,101800.36
2023-12-11T18:31:29.620Z,101804.32
2023-12-11T18:33:39.575Z,101802.16
2023-12-11T18:35:49.698Z,101802.16
2023-12-11T18:37:59.995Z,101804.64
2023-12-11T18:40:10.609Z,101804.73
2023-12-11T18:42:20.311Z,101800.84
2023-12-11T18:44:30.393Z,101800.46
2023-12-11T18:46:40.573Z,101802.04
2023-12-11T18:48:51.269Z,101797.50
2023-12-11T18:51:00.955Z,101789.23
2023-12-11T18:53:10.884Z,101788.69
2023-12-11T18:55:20.776Z,101785.57
2023-12-11T18:57:30.874Z,101785.05
2023-12-11T18:59:41.069Z,101783.45
2023-12-11T19:01:50.992Z,101785.34
2023-12-11T19:04:01.063Z,101785.76
2023-12-11T19:06:11.771Z,101782.48
2023-12-11T19:08:21.727Z,101782.46
2023-12-11T19:10:31.682Z,101781.23
2023-12-11T19:12:41.698Z,101780.40
2023-12-11T19:14:51.528Z,101780.98
2023-12-11T19:17:01.612Z,101774.86
2023-12-11T19:19:12.246Z,101770.44
2023-12-11T19:21:23.277Z,101768.89
2023-12-11T19:23:32.901Z,101767.34
2023-12-11T19:25:42.689Z,101763.05
2023-12-11T19:27:52.796Z,101761.45
2023-12-11T19:30:02.541Z,101755.89
2023-12-11T19:32:12.779Z,101753.94
2023-12-11T19:34:23.864Z,101753.54
2023-12-11T19:36:33.737Z,101750.00
2023-12-11T19:38:43.956Z,101752.58
2023-12-11T19:40:54.058Z,101748.50
2023-12-11T19:43:04.205Z,101745.99
2023-12-11T19:45:15.351Z,101748.42
2023-12-11T19:47:25.205Z,101744.09
2023-12-11T19:49:35.422Z,101743.79
2023-12-11T19:51:46.263Z,101736.80
2023-12-11T19:53:56.892Z,101736.09
2023-12-11T19:56:07.443Z,101731.48
2023-12-11T19:58:17.333Z,101728.70
2023-12-11T20:00:27.516Z,101720.48
2023-12-11T20:02:37.214Z,101715.93
2023-12-11T20:04:46.971Z,101716.70
2023-12-11T20:06:56.784Z,101714.94
2023-12-11T20:09:06.709Z,101714.16
2023-12-11T20:11:16.378Z,101712.13
2023-12-11T20:13:26.160Z,101711.96
2023-12-11T20:15:36.576Z,101714.50
2023-12-11T20:17:46.787Z,101717.90
2023-12-11T20:19:59.667Z,101715.05
2023-12-11T20:22:09.587Z,101715.87
2023-12-11T20:24:19.904Z,101718.59
2023-12-11T20:26:29.736Z,101717.48
2023-12-11T20:28:39.623Z,101712.42
2023-12-11T20:30:49.840Z,101711.11
2023-12-11T20:32:59.698Z,101710.10
2023-12-11T20:35:10.977Z,101706.27
2023-12-11T20:37:21.408Z,101702.73
2023-12-11T20:39:31.206Z,101699.36
2023-12-11T20:41:41.271Z,101698.40
2023-12-11T20:43:51.960Z,101698.30
2023-12-11T20:46:01.588Z,101698.15
2023-12-11T20:48:11.570Z,101698.55
2023-12-11T20:50:22.179Z,101698.90
2023-12-11T20:52:32.026Z,101699.91
2023-12-11T20:54:41.782Z,101700.58
2023-12-11T20:56:51.460Z,101697.13
2023-12-11T20:59:01.327Z,101694.30
2023-12-11T21:01:11.153Z,101689.59
2023-12-11T21:03:20.930Z,101684.27
2023-12-11T21:05:30.769Z,101682.69
2023-12-11T21:07:43.397Z,101679.08
2023-12-11T21:09:53.651Z,101674.79
2023-12-11T21:12:03.465Z,101675.05
2023-12-11T21:14:13.388Z,101674.62
2023-12-11T21:16:23.354Z,101671.01
2023-12-11T21:18:33.449Z,101663.91
2023-12-11T21:20:43.554Z,101663.75
2023-12-11T21:22:53.408Z,101659.30
2023-12-11T21:25:03.654Z,101660.40
2023-12-11T21:27:13.896Z,101655.73
2023-12-11T21:29:23.858Z,101658.38
2023-12-11T21:31:33.635Z,101655.77
2023-12-11T21:33:43.835Z,101656.98
2023-12-11T21:35:54.468Z,101651.02
2023-12-11T21:38:05.364Z,101650.98
2023-12-11T21:40:18.357Z,101648.98
2023-12-11T21:42:28.384Z,101643.39
2023-12-11T21:44:38.166Z,101640.33
2023-12-11T21:46:48.876Z,101641.89
2023-12-11T21:49:02.203Z,101644.72
2023-12-11T21:51:13.709Z,101642.21
2023-12-11T21:53:23.392Z,101636.17
2023-12-11T21:55:33.300Z,101633.38
2023-12-11T21:57:43.387Z,101628.29
2023-12-11T21:59:53.361Z,101627.20
2023-12-11T22:02:03.439Z,101626.03
2023-12-11T22:04:16.141Z,101623.81
2023-12-11T22:06:26.349Z,101620.05
2023-12-11T22:08:36.080Z,101620.52
2023-12-11T22:10:45.816Z,101617.22
2023-12-11T22:12:55.751Z,101614.05
2023-12-11T22:15:05.488Z,101611.96
2023-12-11T22:17:15.510Z,101610.86
2023-12-11T22:19:25.705Z,101608.22
2023-12-11T22:21:35.983Z,101610.67
2023-12-11T22:23:45.882Z,101614.36
2023-12-11T22:25:55.718Z,101615.69
2023-12-11T22:28:06.155Z,101619.77
2023-12-11T22:30:16.434Z,101620.79
2023-12-11T22:32:26.430Z,101620.16
2023-12-11T22:34:36.214Z,101631.25
2023-12-11T22:36:46.044Z,101637.37
2023-12-11T22:38:55.794Z,101641.33
2023-12-11T22:41:05.917Z,101641.67
2023-12-11T22:43:16.716Z,101649.12
2023-12-11T22:45:26.878Z,101652.95
2023-12-11T22:47:36.689Z,101652.14
2023-12-11T22:49:46.752Z,101651.14
2023-12-11T22:51:56.885Z,101649.77
2023-12-11T22:54:07.005Z,101642.81
2023-12-11T22:56:17.701Z,101644.27
2023-12-11T22:58:27.642Z,101641.45
2023-12-11T23:00:38.492Z,101640.83
2023-12-11T23:02:48.363Z,101639.45
2023-12-11T23:04:59.299Z,101636.38
2023-12-11T23:07:09.421Z,101637.48
2023-12-11T23:09:19.222Z,101640.64
2023-12-11T23:11:29.736Z,101641.48
2023-12-11T23:13:39.406Z,101639.98
2023-12-11T23:15:49.113Z,101639.42
2023-12-11T23:17:58.876Z,101638.92
2023-12-11T23:20:09.236Z,101641.04
2023-12-11T23:22:19.340Z,101639.08
2023-12-11T23:24:29.161Z,101639.40
2023-12-11T23:26:39.115Z,101636.81
2023-12-11T23:28:48.793Z,101642.29
2023-12-11T23:30:58.523Z,101645.29
2023-12-11T23:33:08.425Z,101642.22
2023-12-11T23:35:18.121Z,101640.42
2023-12-11T23:37:28.511Z,101638.05
2023-12-11T23:39:38.750Z,101642.42
2023-12-11T23:41:48.673Z,101644.14
2023-12-11T23:43:59.050Z,101645.43
2023-12-11T23:46:09.565Z,101651.94
2023-12-11T23:48:19.303Z,101651.98
2023-12-11T23:50:29.248Z,101654.86
2023-12-11T23:52:39.420Z,101654.80
2023-12-11T23:54:49.735Z,101656.09
2023-12-11T23:57:00.264Z,101658.83
2023-12-11T23:59:10.890Z,101663.39
